Time;durP1;ratioP1;P1;durP2;ratioP2;P2;SDS_P1;SDS_P2;PMS_P1;PMS_P2;Temp;Humidity;BMP_temperature;BMP_pressure;BME280_temperature;BME280_humidity;BME280_pressure;Samples;Min_cycle;Max_cycle;Signal;HPM_P1;HPM_P2
2023/01/30 00:01:25;;;;;;;41.92;24.33;;;;;;;4.19;88.66;101716.66;5045834;28;20464;-71
2023/01/30 00:03:52;;;;;;;40.55;23.17;;;;;;;4.21;88.59;101711.47;5062919;28;20048;-71
2023/01/30 00:06:20;;;;;;;40.47;23.83;;;;;;;4.23;88.68;101690.59;5047510;28;20041;-71
2023/01/30 00:08:47;;;;;;;37.53;22.83;;;;;;;4.24;88.78;101690.59;5048334;28;20045;-71
2023/01/30 00:11:18;;;;;;;39.17;23.33;;;;;;;4.24;89.06;101701.03;5045243;28;20033;-71
2023/01/30 00:13:47;;;;;;;39.85;23.60;;;;;;;4.27;88.97;101701.09;5025674;28;20037;-70
2023/01/30 00:16:15;;;;;;;40.60;23.88;;;;;;;4.29;89.00;101701.09;5019006;28;20056;-71
2023/01/30 00:18:43;;;;;;;41.80;23.10;;;;;;;4.30;89.03;101695.91;5044488;28;20141;-70
2023/01/30 00:21:13;;;;;;;40.78;23.70;;;;;;;4.34;89.12;101702.03;5039953;28;20042;-71
2023/01/30 00:23:41;;;;;;;40.60;23.40;;;;;;;4.34;89.18;101702.03;5028306;28;20149;-71
2023/01/30 00:26:08;;;;;;;38.20;23.67;;;;;;;4.36;89.33;101684.63;5024200;28;20084;-71
2023/01/30 00:28:38;;;;;;;38.60;23.45;;;;;;;4.37;89.19;101690.72;5038439;28;20042;-71
2023/01/30 00:31:06;;;;;;;39.05;24.40;;;;;;;4.40;89.24;101685.53;5028584;28;20034;-71
2023/01/30 00:33:36;;;;;;;37.33;23.27;;;;;;;4.43;89.27;101680.31;5028230;28;20120;-70
2023/01/30 00:36:04;;;;;;;37.28;23.15;;;;;;;4.43;89.49;101673.38;5020330;28;20536;-71
2023/01/30 00:38:31;;;;;;;38.92;24.10;;;;;;;4.48;89.52;101670.81;5024648;28;20053;-70
2023/01/30 00:40:58;;;;;;;36.85;22.65;;;;;;;4.50;89.54;101666.47;5024036;28;20038;-71
2023/01/30 00:49:19;;;;;;;39.33;22.85;;;;;;;4.56;89.75;101660.44;5042243;28;20548;-70
2023/01/30 00:51:46;;;;;;;38.42;23.30;;;;;;;4.62;89.84;101658.75;5024739;28;20509;-71
2023/01/30 00:54:13;;;;;;;39.53;23.63;;;;;;;4.64;89.99;101658.75;5024722;28;20046;-71
2023/01/30 00:56:40;;;;;;;35.33;21.63;;;;;;;4.68;90.05;101662.25;5042487;28;20128;-71
2023/01/30 00:59:07;;;;;;;37.58;22.95;;;;;;;4.73;90.25;101637.06;5038921;28;20042;-71
2023/01/30 01:01:34;;;;;;;40.35;22.92;;;;;;;4.75;90.06;101633.56;5023793;28;20036;-71
2023/01/30 01:04:01;;;;;;;35.10;22.13;;;;;;;4.77;90.38;101633.56;5025101;28;20053;-71
2023/01/30 01:06:28;;;;;;;37.50;22.80;;;;;;;4.84;90.68;101632.75;5024122;28;20042;-71
2023/01/30 01:08:55;;;;;;;38.22;22.20;;;;;;;4.86;90.53;101636.25;5025132;28;20096;-70
2023/01/30 01:11:23;;;;;;;37.22;22.38;;;;;;;4.90;90.45;101635.41;5040673;28;20044;-71
2023/01/30 01:13:56;;;;;;;31.58;21.55;;;;;;;4.92;90.63;101622.34;5022887;28;20042;-71
2023/01/30 01:16:25;;;;;;;36.50;22.45;;;;;;;4.96;90.60;101613.66;5038848;28;20045;-70
2023/01/30 01:18:53;;;;;;;41.47;22.67;;;;;;;5.01;90.78;101611.06;5025928;28;20097;-71
2023/01/30 01:21:21;;;;;;;37.20;22.77;;;;;;;5.05;90.74;101612.81;5026269;28;20049;-71
2023/01/30 01:23:51;;;;;;;33.60;21.75;;;;;;;5.08;91.15;101611.13;5027265;28;20038;-71
2023/01/30 01:26:19;;;;;;;35.20;22.98;;;;;;;5.12;91.03;101614.63;5024991;28;20426;-71
2023/01/30 01:28:47;;;;;;;36.72;23.08;;;;;;;5.15;91.07;101605.91;5039009;28;20192;-71
2023/01/30 01:31:16;;;;;;;36.50;22.27;;;;;;;5.19;91.00;101605.94;5024562;28;20041;-71
2023/01/30 01:33:43;;;;;;;37.33;22.20;;;;;;;5.23;91.25;101607.69;5024581;28;20041;-71
2023/01/30 01:36:10;;;;;;;36.08;22.55;;;;;;;5.26;91.27;101607.69;5022084;28;20042;-71
2023/01/30 01:38:45;;;;;;;35.88;22.77;;;;;;;5.28;91.22;101605.97;5025324;28;20042;-71
2023/01/30 01:41:16;;;;;;;40.95;23.23;;;;;;;5.33;91.08;101611.22;5041610;28;20037;-72
2023/01/30 01:44:06;;;;;;;36.75;22.02;;;;;;;5.35;91.24;101605.97;5037830;28;20038;-72
2023/01/30 01:46:48;;;;;;;37.45;23.98;;;;;;;5.36;90.98;101599.88;5023725;28;20042;-71
2023/01/30 01:49:31;;;;;;;40.10;22.00;;;;;;;5.41;91.09;101574.63;5026973;28;20511;-71
2023/01/30 01:52:04;;;;;;;37.17;23.75;;;;;;;5.43;91.05;101575.53;5005838;28;20165;-72
2023/01/30 01:54:38;;;;;;;35.97;23.05;;;;;;;5.45;91.17;101571.13;5037964;28;20468;-71
2023/01/30 01:57:22;;;;;;;35.45;21.10;;;;;;;5.49;91.27;101567.69;5024783;28;20038;-71
2023/01/30 02:00:04;;;;;;;35.70;22.90;;;;;;;5.52;91.26;101558.97;5005953;28;20175;-71
2023/01/30 02:03:01;;;;;;;36.60;23.23;;;;;;;5.50;91.23;101551.13;5025426;28;20136;-71
2023/01/30 02:05:40;;;;;;;36.40;21.40;;;;;;;5.53;91.24;101543.28;5025552;28;20088;-71
2023/01/30 02:08:15;;;;;;;33.03;22.38;;;;;;;5.54;91.23;101546.75;5040854;28;20068;-72
2023/01/30 02:11:09;;;;;;;34.92;21.85;;;;;;;5.59;91.16;101550.28;5038295;28;20049;-70
2023/01/30 02:13:37;;;;;;;36.72;21.35;;;;;;;5.58;91.08;101559.84;5021945;28;20122;-69
2023/01/30 02:16:07;;;;;;;34.25;22.38;;;;;;;5.60;91.19;101549.38;5024091;28;20116;-70
2023/01/30 02:18:39;;;;;;;36.65;22.15;;;;;;;5.59;91.13;101545.91;5025129;28;20054;-70
2023/01/30 02:21:34;;;;;;;34.60;22.20;;;;;;;5.64;91.07;101545.03;5040442;28;20042;-70
2023/01/30 02:24:35;;;;;;;33.95;22.15;;;;;;;5.63;91.44;101536.31;5030799;28;20505;-69
2023/01/30 02:28:06;;;;;;;32.28;22.13;;;;;;;5.66;91.33;101533.72;5025354;28;20125;-69
2023/01/30 02:30:57;;;;;;;33.13;21.52;;;;;;;5.69;91.48;101530.22;5035991;28;20573;-69
2023/01/30 02:33:38;;;;;;;34.63;21.77;;;;;;;5.67;91.83;101525.00;5023934;28;20523;-68
2023/01/30 02:36:29;;;;;;;38.25;23.52;;;;;;;5.70;91.65;101531.97;5024496;28;20034;-69
2023/01/30 02:39:35;;;;;;;36.97;22.83;;;;;;;5.70;91.61;101530.19;5026053;28;20157;-70
2023/01/30 02:42:42;;;;;;;34.30;21.55;;;;;;;5.70;91.82;101518.88;5039420;28;20044;-70
2023/01/30 02:45:31;;;;;;;34.22;22.65;;;;;;;5.68;91.82;101497.06;5034447;28;20562;-71
2023/01/30 02:48:09;;;;;;;34.25;22.92;;;;;;;5.68;91.96;101490.13;5035404;28;20557;-70
2023/01/30 02:50:39;;;;;;;35.55;22.13;;;;;;;5.70;92.15;101492.72;5031637;28;20043;-70
2023/01/30 02:53:07;;;;;;;35.72;22.85;;;;;;;5.72;92.02;101502.31;5039450;28;20104;-70
2023/01/30 02:55:35;;;;;;;36.40;23.42;;;;;;;5.72;92.15;101506.69;5038712;28;20505;-72
2023/01/30 02:58:03;;;;;;;33.83;21.48;;;;;;;5.75;92.09;101485.72;5026741;28;20041;-70
2023/01/30 03:00:51;;;;;;;36.03;22.42;;;;;;;5.76;92.36;101484.84;5024502;28;20086;-70
2023/01/30 03:04:25;;;;;;;31.73;21.50;;;;;;;5.75;92.25;101480.50;5028347;28;20137;-70
2023/01/30 03:07:24;;;;;;;37.10;22.63;;;;;;;5.79;92.34;101487.47;5002797;28;20070;-70
2023/01/30 03:10:10;;;;;;;33.28;22.08;;;;;;;5.76;92.86;101487.47;4971995;28;20047;-69
2023/01/30 03:13:20;;;;;;;36.10;22.23;;;;;;;5.74;92.95;101482.25;5026479;28;20815;-70
2023/01/30 03:16:17;;;;;;;36.43;23.10;;;;;;;5.74;93.09;101473.53;5025039;28;20152;-68
2023/01/30 03:18:46;;;;;;;37.05;22.27;;;;;;;5.71;93.29;101473.53;5025397;28;20053;-71
2023/01/30 03:21:16;;;;;;;33.83;22.10;;;;;;;5.70;93.62;101475.25;5019232;28;20041;-70
2023/01/30 03:23:45;;;;;;;36.85;22.20;;;;;;;5.70;93.66;101469.16;5027094;28;20030;-69
2023/01/30 03:26:21;;;;;;;38.05;24.30;;;;;;;5.70;93.78;101467.41;5025138;28;20046;-71
2023/01/30 03:28:51;;;;;;;34.22;21.52;;;;;;;5.69;94.21;101464.81;5010973;28;20046;-69
2023/01/30 03:31:19;;;;;;;32.88;22.45;;;;;;;5.64;94.25;101463.94;5038272;28;20034;-69
2023/01/30 03:33:47;;;;;;;35.38;21.95;;;;;;;5.64;94.62;101464.81;5027953;28;20046;-69
2023/01/30 03:36:14;;;;;;;34.70;22.25;;;;;;;5.66;94.49;101462.19;5028343;28;20042;-70
2023/01/30 03:38:41;;;;;;;36.55;22.60;;;;;;;5.62;94.46;101456.09;5043046;28;20104;-70
2023/01/30 03:41:09;;;;;;;33.35;22.13;;;;;;;5.61;94.84;101441.25;5026559;28;20098;-69
2023/01/30 03:43:38;;;;;;;35.42;22.60;;;;;;;5.60;94.96;101449.97;5042298;28;20034;-70
2023/01/30 03:46:05;;;;;;;39.60;24.20;;;;;;;5.58;95.13;101442.13;5024218;28;20108;-69
2023/01/30 03:48:32;;;;;;;38.90;23.27;;;;;;;5.55;95.21;101443.88;5009123;28;20093;-70
2023/01/30 03:50:59;;;;;;;34.63;23.20;;;;;;;5.54;95.52;101432.56;5023973;28;20042;-70
2023/01/30 03:53:26;;;;;;;35.83;23.20;;;;;;;5.57;95.48;101437.78;5041713;28;20048;-70
2023/01/30 03:55:53;;;;;;;33.03;21.88;;;;;;;5.56;95.70;101425.56;5025319;28;20947;-69
2023/01/30 03:58:25;;;;;;;37.40;22.52;;;;;;;5.55;96.23;101428.19;5023828;28;20183;-69
2023/01/30 04:00:56;;;;;;;35.00;22.23;;;;;;;5.54;96.43;101440.41;5036919;28;20058;-70
2023/01/30 04:03:24;;;;;;;32.60;21.77;;;;;;;5.52;96.39;101436.91;5023907;28;20045;-71
2023/01/30 04:05:56;;;;;;;34.83;22.90;;;;;;;5.53;96.38;101451.75;5043089;28;20034;-70
2023/01/30 04:08:23;;;;;;;32.67;22.52;;;;;;;5.54;96.64;101436.91;5040291;28;20101;-71
2023/01/30 04:10:50;;;;;;;34.83;22.02;;;;;;;5.56;97.01;101440.41;5027303;28;20042;-70
2023/01/30 04:13:17;;;;;;;34.90;22.52;;;;;;;5.54;97.00;101447.38;5026785;28;20524;-70
2023/01/30 04:15:44;;;;;;;34.72;23.13;;;;;;;5.57;97.05;101436.91;5039004;28;20112;-70
2023/01/30 04:18:34;;;;;;;35.10;22.83;;;;;;;5.57;97.36;101439.53;5024721;28;20050;-70
2023/01/30 04:21:09;;;;;;;;;;;;;;;5.55;97.15;101441.28;5032950;28;20080;-70
2023/01/30 04:23:38;;;;;;;35.83;22.33;;;;;;;5.57;97.33;101429.06;5042764;28;19980;-70
2023/01/30 04:26:07;;;;;;;32.05;22.20;;;;;;;5.60;97.03;101424.72;5023434;28;20469;-70
2023/01/30 04:28:37;;;;;;;33.40;21.85;;;;;;;5.59;97.38;101425.56;5015836;28;20044;-70
2023/01/30 04:31:05;;;;;;;31.23;21.50;;;;;;;5.64;97.54;101422.97;5043507;28;20038;-71
2023/01/30 04:33:40;;;;;;;30.08;20.83;;;;;;;5.67;97.41;101432.53;5037620;28;20046;-70
2023/01/30 04:36:09;;;;;;;34.33;21.45;;;;;;;5.66;97.56;101426.44;5038719;28;20828;-70
2023/01/30 04:38:37;;;;;;;31.25;20.58;;;;;;;5.69;97.62;101429.06;5023689;28;20057;-70
2023/01/30 04:41:05;;;;;;;28.35;20.10;;;;;;;5.70;97.53;101436.03;5041461;28;20486;-72
2023/01/30 04:43:34;;;;;;;30.05;21.05;;;;;;;5.72;98.02;101438.66;5042159;28;20042;-70
2023/01/30 04:46:17;;;;;;;28.02;19.50;;;;;;;5.77;98.29;101438.66;5022195;28;20120;-70
2023/01/30 04:48:44;;;;;;;29.92;19.23;;;;;;;5.76;98.13;101435.16;5025665;28;20049;-69
2023/01/30 04:51:11;;;;;;;27.25;18.85;;;;;;;5.78;98.30;101435.16;5040280;28;20045;-70
2023/01/30 04:53:39;;;;;;;29.15;18.75;;;;;;;5.79;98.14;101429.06;5039762;28;20524;-70
2023/01/30 04:56:06;;;;;;;26.90;18.30;;;;;;;5.82;98.19;101437.78;5041358;28;20108;-70
2023/01/30 04:58:33;;;;;;;24.85;16.90;;;;;;;5.86;98.54;101429.03;5040870;28;20827;-71
2023/01/30 05:01:32;;;;;;;25.83;16.55;;;;;;;5.85;98.23;101423.81;5037700;28;20042;-70
2023/01/30 05:03:59;;;;;;;23.73;14.45;;;;;;;5.90;99.01;101428.16;5042709;28;20094;-70
2023/01/30 05:06:27;;;;;;;25.42;13.52;;;;;;;5.94;98.79;101425.56;5025693;28;20037;-70
2023/01/30 05:08:55;;;;;;;20.75;11.65;;;;;;;5.99;99.02;101426.41;5027449;28;20512;-70
2023/01/30 05:11:25;;;;;;;24.98;12.60;;;;;;;6.03;99.00;101418.56;5026436;28;20493;-70
2023/01/30 05:13:53;;;;;;;19.80;11.48;;;;;;;6.11;99.06;101431.66;5026376;28;20113;-70
2023/01/30 05:16:22;;;;;;;20.05;11.05;;;;;;;6.16;98.82;101431.63;5024617;28;20049;-70
2023/01/30 05:18:50;;;;;;;17.25;10.68;;;;;;;6.18;98.81;101433.38;5025443;28;20168;-70
2023/01/30 05:21:26;;;;;;;17.70;9.38;;;;;;;6.23;98.68;101433.34;5022720;28;20050;-70
2023/01/30 05:23:55;;;;;;;16.58;9.48;;;;;;;6.27;98.30;101429.88;5025045;28;20076;-70
2023/01/30 05:26:23;;;;;;;18.88;9.05;;;;;;;6.30;98.35;101435.09;5039253;28;20046;-69
2023/01/30 05:28:56;;;;;;;16.50;9.43;;;;;;;6.33;98.23;101439.44;5024121;28;20038;-70
2023/01/30 05:31:23;;;;;;;20.55;9.80;;;;;;;6.34;97.89;101425.47;5026081;28;20050;-70
2023/01/30 05:33:51;;;;;;;19.20;9.00;;;;;;;6.37;97.77;101422.84;5021212;28;20061;-70
2023/01/30 05:36:25;;;;;;;15.70;8.77;;;;;;;6.37;97.68;101426.34;5006505;28;20046;-70
2023/01/30 05:38:56;;;;;;;19.25;9.23;;;;;;;6.41;97.61;101431.56;5018594;28;20049;-70
2023/01/30 05:41:23;;;;;;;21.80;9.48;;;;;;;6.43;97.78;101427.19;5021398;28;20108;-70
2023/01/30 05:43:50;;;;;;;18.95;8.23;;;;;;;6.44;97.51;101428.91;5022119;28;20046;-69
2023/01/30 05:46:18;;;;;;;16.13;8.02;;;;;;;6.46;97.31;101422.78;5020233;28;20042;-69
2023/01/30 05:48:45;;;;;;;15.57;7.88;;;;;;;6.53;97.16;101428.88;5027751;28;20782;-69
2023/01/30 05:51:22;;;;;;;17.98;8.57;;;;;;;6.55;96.76;101440.22;5024945;28;20125;-67
2023/01/30 05:53:50;;;;;;;14.20;6.90;;;;;;;6.56;96.07;101434.13;5025242;28;20042;-67
2023/01/30 05:56:18;;;;;;;18.33;6.85;;;;;;;6.52;95.95;101435.88;5024399;28;20576;-67
2023/01/30 05:58:51;;;;;;;17.17;6.65;;;;;;;6.51;95.72;101431.53;5025318;28;20044;-70
2023/01/30 06:01:19;;;;;;;13.85;5.82;;;;;;;6.53;95.67;101453.34;5024886;28;20548;-67
2023/01/30 06:03:46;;;;;;;14.32;5.47;;;;;;;6.58;95.02;101449.81;5024417;28;20034;-66
2023/01/30 06:06:14;;;;;;;19.13;5.88;;;;;;;6.59;94.92;101454.19;5025484;28;20116;-67
2023/01/30 06:08:41;;;;;;;15.23;5.82;;;;;;;6.55;94.85;101444.63;5023070;28;20034;-67
2023/01/30 06:11:13;;;;;;;14.85;5.60;;;;;;;6.57;94.74;101440.22;5026169;28;20564;-67
2023/01/30 06:13:42;;;;;;;17.67;4.78;;;;;;;6.63;94.24;101455.94;5040512;28;20073;-67
2023/01/30 06:16:13;;;;;;;14.63;4.05;;;;;;;6.68;93.50;101448.91;5025983;28;21142;-70
2023/01/30 06:18:41;;;;;;;12.00;4.28;;;;;;;6.69;92.85;101455.91;5022757;28;20054;-70
2023/01/30 06:21:08;;;;;;;13.80;3.95;;;;;;;6.71;92.71;101448.91;5024856;28;20046;-69
2023/01/30 06:23:35;;;;;;;12.90;3.55;;;;;;;6.68;92.22;101448.91;5025898;28;20145;-69
2023/01/30 06:26:03;;;;;;;16.60;4.60;;;;;;;6.64;92.01;101458.53;5023954;28;20225;-70
2023/01/30 06:28:35;;;;;;;15.63;3.75;;;;;;;6.62;91.61;101465.53;5024687;28;20038;-69
2023/01/30 06:31:05;;;;;;;11.05;3.20;;;;;;;6.59;91.19;101456.81;5022670;28;20721;-69
2023/01/30 06:33:32;;;;;;;9.48;3.45;;;;;;;6.52;91.05;101480.41;5023962;28;20056;-70
2023/01/30 06:35:59;;;;;;;15.77;3.20;;;;;;;6.48;91.11;101478.69;5028423;28;20042;-69
2023/01/30 06:38:26;;;;;;;13.40;3.50;;;;;;;6.47;90.30;101491.78;5007310;28;20077;-70
2023/01/30 06:40:53;;;;;;;7.93;2.50;;;;;;;6.46;89.74;101495.28;5022104;28;20054;-68
2023/01/30 06:43:20;;;;;;;11.98;3.10;;;;;;;6.46;88.81;101493.53;5040030;28;20038;-69
2023/01/30 06:45:47;;;;;;;13.23;2.25;;;;;;;6.47;86.54;101478.69;5027539;28;20042;-69
2023/01/30 06:48:14;;;;;;;10.50;2.15;;;;;;;6.45;86.29;101485.69;5025836;28;20113;-69
2023/01/30 06:50:41;;;;;;;13.07;2.35;;;;;;;6.38;86.31;101492.66;5042498;28;20811;-69
2023/01/30 06:53:09;;;;;;;9.20;2.33;;;;;;;6.30;86.45;101492.72;5027503;28;20066;-68
2023/01/30 06:55:37;;;;;;;14.02;2.47;;;;;;;6.28;85.97;101501.44;5037872;28;20081;-67
2023/01/30 06:58:11;;;;;;;13.13;2.10;;;;;;;6.23;84.74;101501.44;5031526;28;20125;-67
2023/01/30 07:00:41;;;;;;;9.38;2.05;;;;;;;6.19;84.50;101490.09;5027205;28;20104;-67
2023/01/30 07:03:14;;;;;;;7.53;1.77;;;;;;;6.16;84.29;101478.75;5026261;28;20034;-67
2023/01/30 07:05:45;;;;;;;12.45;2.38;;;;;;;6.09;84.58;101474.41;5026672;28;20065;-67
2023/01/30 07:08:13;;;;;;;14.40;2.78;;;;;;;6.02;84.49;101484.88;5025578;28;20129;-67
2023/01/30 07:10:42;;;;;;;8.38;1.70;;;;;;;5.97;84.64;101481.38;5028141;28;20554;-67
2023/01/30 07:13:10;;;;;;;12.95;2.08;;;;;;;5.91;84.46;101482.25;5044626;28;20038;-65
2023/01/30 07:15:37;;;;;;;11.70;1.98;;;;;;;5.83;85.19;101489.25;5034713;28;20034;-67
2023/01/30 07:18:05;;;;;;;10.00;2.20;;;;;;;5.76;85.50;101484.84;5020153;28;20058;-67
2023/01/30 07:20:32;;;;;;;14.45;3.25;;;;;;;5.70;85.85;101492.72;5020601;28;20139;-66
2023/01/30 07:22:59;;;;;;;11.32;2.22;;;;;;;5.68;85.99;101507.53;5016891;28;20046;-67
2023/01/30 07:25:27;;;;;;;16.65;2.30;;;;;;;5.68;86.08;101499.69;5021889;28;20042;-66
2023/01/30 07:27:59;;;;;;;9.43;1.90;;;;;;;5.67;86.07;101497.94;5022058;28;20049;-63
2023/01/30 07:30:30;;;;;;;11.95;2.45;;;;;;;5.68;85.94;101505.81;5019135;28;20495;-65
2023/01/30 07:32:59;;;;;;;10.65;2.47;;;;;;;5.71;85.81;101526.72;5014505;28;20043;-66
2023/01/30 07:35:33;;;;;;;17.15;2.60;;;;;;;5.74;85.60;101518.03;5035285;28;20430;-67
2023/01/30 07:38:00;;;;;;;16.17;4.07;;;;;;;5.78;85.40;101534.59;5019362;28;20085;-65
2023/01/30 07:40:31;;;;;;;12.02;2.70;;;;;;;5.78;85.53;101535.44;5017666;28;20034;-67
2023/01/30 07:43:00;;;;;;;9.02;2.35;;;;;;;5.78;85.52;101534.59;5033863;28;20556;-68
2023/01/30 07:45:38;;;;;;;9.82;2.40;;;;;;;5.71;85.54;101520.63;5017521;28;20031;-68
2023/01/30 07:48:14;;;;;;;16.00;2.90;;;;;;;5.66;85.60;101525.84;5018034;28;20049;-66
2023/01/30 07:50:42;;;;;;;14.70;2.38;;;;;;;5.66;85.34;101531.09;5018385;28;20045;-66
2023/01/30 07:53:13;;;;;;;14.73;2.25;;;;;;;5.60;85.72;101524.09;5017001;28;20056;-68
2023/01/30 07:55:41;;;;;;;13.05;2.55;;;;;;;5.58;85.89;101528.47;5017646;28;20042;-67
2023/01/30 07:58:13;;;;;;;14.27;2.60;;;;;;;5.55;86.02;101535.44;5018066;28;20093;-67
2023/01/30 08:00:41;;;;;;;17.05;2.75;;;;;;;5.57;86.13;101537.16;5015405;28;20117;-67
2023/01/30 08:03:17;;;;;;;11.48;2.78;;;;;;;5.56;86.23;101537.19;5032562;28;20092;-66
2023/01/30 08:05:45;;;;;;;13.40;2.58;;;;;;;5.58;85.72;101533.69;5019398;28;20034;-68
2023/01/30 08:08:13;;;;;;;15.27;2.67;;;;;;;5.63;85.62;101554.63;5020089;28;20572;-66
2023/01/30 08:10:43;;;;;;;17.48;2.42;;;;;;;5.66;85.55;101536.31;5020514;28;20050;-67
2023/01/30 08:13:10;;;;;;;12.57;2.55;;;;;;;5.71;85.00;101536.31;5032480;28;20045;-66
2023/01/30 08:15:45;;;;;;;12.77;2.10;;;;;;;5.74;84.66;101549.41;5000778;28;20939;-67
2023/01/30 08:18:12;;;;;;;;;;;;;;;5.75;84.63;101538.06;5032283;28;20042;-69
2023/01/30 08:20:39;;;;;;;13.82;3.17;;;;;;;5.77;84.20;101544.16;5023462;28;20519;-66
2023/01/30 08:23:06;;;;;;;11.57;2.72;;;;;;;5.79;84.07;101549.44;5023540;28;20038;-68
2023/01/30 08:25:34;;;;;;;15.43;2.67;;;;;;;5.83;83.35;101553.78;5019821;28;20042;-68
2023/01/30 08:28:02;;;;;;;15.00;3.13;;;;;;;5.83;82.97;101549.44;5019631;28;20045;-67
2023/01/30 08:30:31;;;;;;;22.98;3.58;;;;;;;5.86;82.33;101543.31;5021442;28;20532;-66
2023/01/30 08:32:58;;;;;;;19.85;4.97;;;;;;;5.89;82.08;101549.41;5017813;28;20050;-68
2023/01/30 08:35:28;;;;;;;16.80;2.90;;;;;;;5.90;81.40;101553.78;5038474;28;20494;-67
2023/01/30 08:37:55;;;;;;;16.67;3.05;;;;;;;5.94;81.28;101559.88;5014837;28;20520;-67
2023/01/30 08:40:25;;;;;;;14.55;2.78;;;;;;;5.98;80.81;101573.84;5034588;28;20420;-66
2023/01/30 08:42:52;;;;;;;14.45;2.40;;;;;;;5.98;80.68;101569.50;5017539;28;20052;-67
2023/01/30 08:45:19;;;;;;;15.82;2.45;;;;;;;6.03;79.59;101567.78;5018101;28;20033;-67
2023/01/30 08:47:46;;;;;;;15.98;2.95;;;;;;;6.06;79.97;101569.50;5014322;28;20036;-66
2023/01/30 08:50:13;;;;;;;19.45;3.30;;;;;;;6.10;79.43;101586.97;5016171;28;20038;-66
2023/01/30 08:52:40;;;;;;;23.25;3.35;;;;;;;6.15;78.54;101581.75;5009205;28;20034;-67
2023/01/30 08:55:08;;;;;;;15.13;3.38;;;;;;;6.19;78.05;101589.59;5020340;28;20151;-68
2023/01/30 08:57:35;;;;;;;18.83;2.65;;;;;;;6.22;77.83;101605.31;5041579;28;20125;-68
2023/01/30 09:00:04;;;;;;;17.23;2.92;;;;;;;6.27;77.69;101597.47;5024209;28;20067;-67
2023/01/30 09:02:31;;;;;;;18.48;3.30;;;;;;;6.28;77.82;101606.16;5035178;28;20516;-66
2023/01/30 09:04:58;;;;;;;17.13;2.58;;;;;;;6.29;76.88;101606.19;5026954;28;20038;-67
2023/01/30 09:07:27;;;;;;;14.60;3.22;;;;;;;6.33;77.07;101594.81;5026982;28;20445;-67
2023/01/30 09:09:54;;;;;;;18.23;4.35;;;;;;;6.35;76.95;101600.94;5026781;28;20084;-67
2023/01/30 09:12:21;;;;;;;13.73;2.45;;;;;;;6.38;76.71;101594.81;5025136;28;20550;-67
2023/01/30 09:14:49;;;;;;;14.75;2.55;;;;;;;6.41;75.94;101589.59;5015591;28;20069;-67
2023/01/30 09:17:16;;;;;;;15.45;2.92;;;;;;;6.45;76.18;101614.03;5025648;28;20046;-67
2023/01/30 09:19:43;;;;;;;17.70;2.47;;;;;;;6.48;75.64;101600.94;5024997;28;20042;-67
2023/01/30 09:22:10;;;;;;;14.32;2.30;;;;;;;6.54;74.75;101627.13;5036953;28;20063;-67
2023/01/30 09:24:37;;;;;;;17.52;2.95;;;;;;;6.68;75.14;101621.84;5028022;28;20046;-67
2023/01/30 09:27:04;;;;;;;13.90;2.50;;;;;;;6.82;74.91;101614.84;5029866;28;21042;-67
2023/01/30 09:29:31;;;;;;;14.93;3.08;;;;;;;6.94;74.34;101613.94;5040997;28;20501;-67
2023/01/30 09:31:58;;;;;;;24.83;5.25;;;;;;;7.01;73.62;101627.03;5024706;28;20111;-69
2023/01/30 09:34:27;;;;;;;18.35;3.35;;;;;;;7.03;73.45;101634.03;5043773;28;20045;-67
2023/01/30 09:36:56;;;;;;;15.68;2.80;;;;;;;7.07;73.45;101624.38;5029600;28;20048;-67
2023/01/30 09:39:23;;;;;;;13.00;2.75;;;;;;;7.09;73.36;101631.38;5032331;28;20558;-67
2023/01/30 09:42:18;;;;;;;8.23;2.00;;;;;;;7.14;73.49;101636.59;5037050;28;20041;-68
2023/01/30 09:44:45;;;;;;;18.05;2.85;;;;;;;7.17;73.49;101620.88;5031082;28;20531;-67
2023/01/30 09:47:23;;;;;;;12.32;2.22;;;;;;;7.20;72.58;101626.09;5041847;28;20044;-67
2023/01/30 09:50:16;;;;;;;15.68;2.30;;;;;;;7.20;72.86;101631.34;5033628;28;20528;-67
2023/01/30 09:53:24;;;;;;;43.10;15.57;;;;;;;7.29;71.85;101633.03;5047085;28;20100;-68
2023/01/30 09:55:51;;;;;;;21.17;8.75;;;;;;;7.31;71.90;101633.91;5026853;28;20081;-68
2023/01/30 09:58:23;;;;;;;11.30;2.60;;;;;;;7.33;72.31;101633.91;5029002;28;20038;-68
2023/01/30 10:01:07;;;;;;;12.95;2.38;;;;;;;7.36;71.89;101639.16;5042981;28;20736;-67
2023/01/30 10:03:48;;;;;;;10.07;2.47;;;;;;;7.35;71.24;101654.03;5032924;28;20581;-67
2023/01/30 10:06:16;;;;;;;16.83;2.72;;;;;;;7.35;70.93;101650.50;5034622;28;20490;-67
2023/01/30 10:09:24;;;;;;;18.95;3.97;;;;;;;7.37;70.93;101657.53;5023592;28;20046;-67
2023/01/30 10:12:25;;;;;;;15.73;2.80;;;;;;;7.38;70.81;101655.75;5028725;28;20073;-67
2023/01/30 10:15:39;;;;;;;16.42;2.22;;;;;;;7.38;70.68;101663.63;5039560;28;20057;-69
2023/01/30 10:18:46;;;;;;;13.60;2.10;;;;;;;7.40;70.94;101662.72;5029974;28;20139;-67
2023/01/30 10:21:49;;;;;;;11.98;2.40;;;;;;;7.48;70.42;101659.22;5033106;28;20038;-67
2023/01/30 10:24:44;;;;;;;11.90;2.05;;;;;;;7.48;70.48;101649.59;5036341;28;20421;-67
2023/01/30 10:27:17;;;;;;;17.07;2.73;;;;;;;7.55;69.66;101667.03;5031644;28;20037;-67
2023/01/30 10:29:51;;;;;;;17.10;3.72;;;;;;;7.65;69.57;101654.75;5036408;28;20087;-67
2023/01/30 10:32:40;;;;;;;12.32;2.10;;;;;;;7.73;69.76;101658.22;5035848;28;20045;-69
2023/01/30 10:35:26;;;;;;;16.10;2.17;;;;;;;7.77;69.52;101664.31;5045637;28;20524;-67
2023/01/30 10:38:18;;;;;;;14.90;3.05;;;;;;;7.82;69.96;101659.94;5033316;28;20568;-67
2023/01/30 10:41:01;;;;;;;16.05;2.42;;;;;;;7.88;69.91;101667.75;5026632;28;20809;-67
2023/01/30 10:43:41;;;;;;;10.27;1.83;;;;;;;7.88;68.70;101645.91;5041315;28;20112;-68
2023/01/30 10:46:30;;;;;;;13.98;2.45;;;;;;;7.92;68.63;101658.09;5045074;28;20074;-68
2023/01/30 10:49:16;;;;;;;10.77;2.08;;;;;;;7.95;68.08;101668.59;5022617;28;20165;-67
2023/01/30 10:52:01;;;;;;;14.85;2.22;;;;;;;7.96;68.72;101674.72;5021383;28;20034;-67
2023/01/30 10:54:42;;;;;;;14.70;1.67;;;;;;;7.94;68.18;101666.84;5038701;28;20125;-67
2023/01/30 10:57:34;;;;;;;12.40;2.28;;;;;;;7.91;68.10;101661.59;5027517;28;20044;-67
2023/01/30 11:00:13;;;;;;;16.77;1.70;;;;;;;7.98;67.61;101662.44;5030911;28;20080;-67
2023/01/30 11:03:10;;;;;;;11.82;2.00;;;;;;;7.91;67.97;101691.38;5044374;28;20441;-67
2023/01/30 11:05:44;;;;;;;13.27;2.15;;;;;;;7.92;68.15;101695.75;5025218;28;20116;-67
2023/01/30 11:08:33;;;;;;;14.43;2.07;;;;;;;7.95;68.63;101671.22;5040081;28;20041;-67
2023/01/30 11:11:20;;;;;;;12.35;2.30;;;;;;;7.96;68.77;101679.97;5031153;28;21044;-67
2023/01/30 11:13:47;;;;;;;12.35;1.95;;;;;;;7.97;68.61;101687.84;5041158;28;20095;-67
2023/01/30 11:16:14;;;;;;;11.35;1.80;;;;;;;7.99;68.07;101709.69;5040639;28;20041;-68
2023/01/30 11:18:49;;;;;;;13.05;1.80;;;;;;;7.97;68.21;101690.47;5043003;28;20137;-69
2023/01/30 11:21:41;;;;;;;14.40;2.10;;;;;;;7.96;69.45;101678.22;5013020;28;20048;-66
2023/01/30 11:24:36;;;;;;;13.23;1.85;;;;;;;8.05;68.78;101680.78;5024555;28;20038;-67
2023/01/30 11:27:24;;;;;;;16.08;2.53;;;;;;;8.10;67.65;101688.63;5026528;28;20048;-67
2023/01/30 11:30:18;;;;;;;16.70;3.13;;;;;;;8.12;67.95;101676.38;5031608;28;20057;-66
2023/01/30 11:32:49;;;;;;;14.05;2.30;;;;;;;8.13;68.10;101664.09;5043423;28;20038;-67
2023/01/30 11:35:24;;;;;;;13.18;2.05;;;;;;;8.09;68.21;101690.38;5029832;28;20061;-68
2023/01/30 11:37:52;;;;;;;14.25;2.42;;;;;;;8.13;68.15;101679.84;5040404;28;20109;-67
2023/01/30 11:40:29;;;;;;;14.80;2.40;;;;;;;8.15;67.92;101678.97;5027807;28;20034;-68
2023/01/30 11:43:10;;;;;;;12.60;2.08;;;;;;;8.22;67.93;101679.78;5040173;28;20043;-68
2023/01/30 11:45:43;;;;;;;10.70;2.05;;;;;;;8.28;68.24;101668.38;5038690;28;20053;-67
2023/01/30 11:48:26;;;;;;;15.82;2.88;;;;;;;8.45;67.86;101687.50;5028766;28;20524;-67
2023/01/30 11:51:14;;;;;;;16.60;2.45;;;;;;;8.47;67.68;101684.88;5041402;28;20189;-67
2023/01/30 11:53:55;;;;;;;18.95;2.80;;;;;;;8.49;67.08;101675.25;5040367;28;20056;-67
2023/01/30 11:56:40;;;;;;;12.23;2.25;;;;;;;8.59;67.09;101689.19;5041172;28;20981;-67
2023/01/30 11:59:27;;;;;;;14.18;2.10;;;;;;;8.53;66.63;101700.63;5043451;28;20484;-67